createdAt,value
2018-04-06T00:00:21.231Z,98500.66
2018-04-06T00:01:27.317Z,98496.92
2018-04-06T00:02:33.379Z,98499.02
2018-04-06T00:03:39.252Z,98495.38
2018-04-06T00:04:45.029Z,98496.23
2018-04-06T00:05:51.331Z,98494.67
2018-04-06T00:06:56.912Z,98494.23
2018-04-06T00:08:02.639Z,98491.03
2018-04-06T00:09:08.364Z,98489.78
2018-04-06T00:10:14.803Z,98498.05
2018-04-06T00:11:20.657Z,98489.01
2018-04-06T00:12:28.644Z,98494.79
2018-04-06T00:13:34.550Z,98493.95
2018-04-06T00:14:40.531Z,98493.57
2018-04-06T00:15:46.168Z,98499.73
2018-04-06T00:16:53.326Z,98495.99
2018-04-06T00:17:58.918Z,98499.70
2018-04-06T00:19:04.931Z,98501.34
2018-04-06T00:20:10.696Z,98498.38
2018-04-06T00:21:16.449Z,98500.89
2018-04-06T00:22:21.826Z,98495.09
2018-04-06T00:23:28.266Z,98502.08
2018-04-06T00:24:33.734Z,98498.39
2018-04-06T00:25:39.720Z,98498.77
2018-04-06T00:26:45.156Z,98500.41
2018-04-06T00:27:51.005Z,98501.59
2018-04-06T00:28:56.840Z,98496.22
2018-04-06T00:30:02.519Z,98497.51
2018-04-06T00:31:08.144Z,98491.73
2018-04-06T00:32:15.227Z,98487.22
2018-04-06T00:33:22.070Z,98486.81
2018-04-06T00:34:28.567Z,98483.11
2018-04-06T00:35:33.997Z,98481.12
2018-04-06T00:36:40.841Z,98481.95
2018-04-06T00:37:46.885Z,98482.81
2018-04-06T00:38:52.914Z,98486.94
2018-04-06T00:39:58.826Z,98482.00
2018-04-06T00:41:04.381Z,98472.09
2018-04-06T00:42:10.246Z,98479.92
2018-04-06T00:43:15.970Z,98479.12
2018-04-06T00:44:21.798Z,98478.34
2018-04-06T00:45:28.173Z,98472.17
2018-04-06T00:46:34.156Z,98472.57
2018-04-06T00:47:39.893Z,98472.10
2018-04-06T00:48:46.119Z,98470.88
2018-04-06T00:49:52.678Z,98467.97
2018-04-06T00:50:58.434Z,98468.37
2018-04-06T00:52:04.635Z,98466.34
2018-04-06T00:53:13.852Z,98468.45
2018-04-06T00:54:19.295Z,98466.47
2018-04-06T00:55:25.254Z,98470.16
2018-04-06T00:56:30.707Z,98475.08
2018-04-06T00:57:36.672Z,98468.45
2018-04-06T00:58:42.927Z,98474.22
2018-04-06T00:59:48.432Z,98475.00
2018-04-06T01:00:54.140Z,98471.28
2018-04-06T01:01:59.995Z,98471.20
2018-04-06T01:03:05.601Z,98471.56
2018-04-06T01:04:12.000Z,98469.63
2018-04-06T01:05:19.297Z,98473.02
2018-04-06T01:06:25.115Z,98480.45
2018-04-06T01:07:30.525Z,98480.83
2018-04-06T01:08:35.925Z,98479.13
2018-04-06T01:09:41.735Z,98479.89
2018-04-06T01:10:47.533Z,98480.70
2018-04-06T01:11:53.571Z,98476.20
2018-04-06T01:12:59.350Z,98475.38
2018-04-06T01:14:05.103Z,98474.89
2018-04-06T01:15:10.463Z,98478.25
2018-04-06T01:16:15.984Z,98474.98
2018-04-06T01:17:21.475Z,98476.63
2018-04-06T01:18:27.162Z,98472.52
2018-04-06T01:19:32.640Z,98472.48
2018-04-06T01:20:38.183Z,98470.08
2018-04-06T01:21:43.740Z,98467.25
2018-04-06T01:22:50.143Z,98473.04
2018-04-06T01:23:55.531Z,98474.69
2018-04-06T01:25:01.042Z,98480.44
2018-04-06T01:26:06.552Z,98474.22
2018-04-06T01:27:11.860Z,98480.36
2018-04-06T01:28:17.378Z,98476.63
2018-04-06T01:29:22.507Z,98480.38
2018-04-06T01:30:27.861Z,98475.03
2018-04-06T01:31:33.329Z,98472.17
2018-04-06T01:32:39.158Z,98470.94
2018-04-06T01:33:44.300Z,98468.44
2018-04-06T01:34:49.341Z,98466.80
2018-04-06T01:35:54.414Z,98474.61
2018-04-06T01:36:59.416Z,98469.30
2018-04-06T01:38:05.079Z,98470.95
2018-04-06T01:39:09.961Z,98472.55
2018-04-06T01:40:14.818Z,98470.14
2018-04-06T01:41:20.123Z,98466.82
2018-04-06T01:42:25.384Z,98468.46
2018-04-06T01:43:30.494Z,98470.09
2018-04-06T01:44:35.930Z,98470.52
2018-04-06T01:45:41.420Z,98472.53
2018-04-06T01:46:46.408Z,98471.65
2018-04-06T01:47:52.416Z,98473.69
2018-04-06T01:48:58.348Z,98466.23
2018-04-06T01:50:03.423Z,98470.31
2018-04-06T01:51:09.018Z,98472.45
2018-04-06T01:52:14.281Z,98463.73
2018-04-06T01:53:19.439Z,98464.62
2018-04-06T01:54:24.467Z,98463.09
2018-04-06T01:55:29.692Z,98467.66
2018-04-06T01:56:35.528Z,98460.67
2018-04-06T01:57:40.724Z,98469.36
2018-04-06T01:58:46.434Z,98474.72
2018-04-06T01:59:51.903Z,98471.45
2018-04-06T02:00:57.149Z,98473.91
2018-04-06T02:02:02.304Z,98478.04
2018-04-06T02:03:08.306Z,98480.11
2018-04-06T02:04:13.670Z,98483.77
2018-04-06T02:05:18.934Z,98483.77
2018-04-06T02:06:24.186Z,98486.23
2018-04-06T02:07:29.152Z,98477.97
2018-04-06T02:08:34.174Z,98478.75
2018-04-06T02:09:39.616Z,98479.13
2018-04-06T02:10:44.586Z,98478.28
2018-04-06T02:11:49.682Z,98483.22
2018-04-06T02:12:54.772Z,98481.14
2018-04-06T02:14:00.055Z,98482.81
2018-04-06T02:15:05.163Z,98482.41
2018-04-06T02:16:10.496Z,98484.47
2018-04-06T02:17:15.401Z,98483.25
2018-04-06T02:18:20.361Z,98485.33
2018-04-06T02:19:25.395Z,98488.71
2018-04-06T02:20:30.127Z,98487.45
2018-04-06T02:21:35.221Z,98478.37
2018-04-06T02:22:40.574Z,98481.19
2018-04-06T02:23:45.557Z,98481.16
2018-04-06T02:24:50.544Z,98478.24
2018-04-06T02:25:56.105Z,98480.33
2018-04-06T02:27:01.939Z,98483.64
2018-04-06T02:28:06.961Z,98481.94
2018-04-06T02:29:13.202Z,98475.83
2018-04-06T02:30:18.208Z,98484.98
2018-04-06T02:31:23.250Z,98476.75
2018-04-06T02:32:28.053Z,98478.38
2018-04-06T02:33:32.947Z,98479.23
2018-04-06T02:34:37.678Z,98480.46
2018-04-06T02:35:43.830Z,98481.70
2018-04-06T02:36:48.653Z,98486.19
2018-04-06T02:37:53.456Z,98483.73
2018-04-06T02:38:58.299Z,98481.21
2018-04-06T02:40:03.082Z,98480.38
2018-04-06T02:41:07.843Z,98480.77
2018-04-06T02:42:13.170Z,98477.50
2018-04-06T02:43:17.994Z,98480.03
2018-04-06T02:44:22.815Z,98482.16
2018-04-06T02:45:27.692Z,98479.27
2018-04-06T02:46:32.478Z,98484.64
2018-04-06T02:47:37.255Z,98482.16
2018-04-06T02:48:43.077Z,98479.73
2018-04-06T02:49:47.899Z,98480.59
2018-04-06T02:50:52.925Z,98476.50
2018-04-06T02:51:57.579Z,98481.88
2018-04-06T02:53:02.419Z,98469.52
2018-04-06T02:54:07.176Z,98478.17
2018-04-06T02:55:12.274Z,98477.75
2018-04-06T02:56:17.026Z,98491.31
2018-04-06T02:57:21.797Z,98488.44
2018-04-06T02:58:26.610Z,98484.70
2018-04-06T02:59:31.371Z,98482.63
2018-04-06T03:00:36.333Z,98484.67
2018-04-06T03:01:41.598Z,98481.81
2018-04-06T03:02:46.499Z,98476.50
2018-04-06T03:03:51.714Z,98484.75
2018-04-06T03:04:56.543Z,98483.11
2018-04-06T03:06:01.274Z,98482.27
2018-04-06T03:07:06.225Z,98486.31
2018-04-06T03:08:11.611Z,98483.84
2018-04-06T03:09:16.467Z,98480.95
2018-04-06T03:10:21.490Z,98480.11
2018-04-06T03:11:26.366Z,98476.85
2018-04-06T03:12:31.821Z,98478.48
2018-04-06T03:13:36.774Z,98471.08
2018-04-06T03:14:42.000Z,98471.47
2018-04-06T03:15:46.998Z,98472.71
2018-04-06T03:16:51.785Z,98475.57
2018-04-06T03:17:56.621Z,98477.19
2018-04-06T03:19:01.463Z,98472.62
2018-04-06T03:20:06.472Z,98468.91
2018-04-06T03:21:12.235Z,98475.49
2018-04-06T03:22:18.175Z,98473.50
2018-04-06T03:23:23.074Z,98473.14
2018-04-06T03:24:27.942Z,98467.33
2018-04-06T03:25:32.874Z,98468.95
2018-04-06T03:26:37.696Z,98466.05
2018-04-06T03:27:43.116Z,98469.77
2018-04-06T03:28:48.271Z,98476.77
2018-04-06T03:29:53.301Z,98474.75
2018-04-06T03:30:58.270Z,98474.75
2018-04-06T03:32:03.161Z,98474.75
2018-04-06T03:33:08.236Z,98472.32
2018-04-06T03:34:13.559Z,98469.45
2018-04-06T03:35:18.421Z,98466.20
2018-04-06T03:36:23.260Z,98459.63
2018-04-06T03:37:27.913Z,98464.56
2018-04-06T03:38:32.540Z,98466.63
2018-04-06T03:39:37.484Z,98464.92
2018-04-06T03:40:42.566Z,98469.03
2018-04-06T03:41:47.597Z,98465.75
2018-04-06T03:42:52.469Z,98466.17
2018-04-06T03:43:57.295Z,98464.14
2018-04-06T03:45:02.397Z,98459.60
2018-04-06T03:46:07.176Z,98457.94
2018-04-06T03:47:12.431Z,98462.04
2018-04-06T03:48:18.481Z,98466.17
2018-04-06T03:49:23.233Z,98475.22
2018-04-06T03:50:28.043Z,98469.86
2018-04-06T03:51:32.814Z,98473.09
2018-04-06T03:52:37.654Z,98475.52
2018-04-06T03:53:43.005Z,98475.10
2018-04-06T03:54:47.912Z,98475.55
2018-04-06T03:55:52.721Z,98472.70
2018-04-06T03:56:57.510Z,98477.20
2018-04-06T03:58:02.256Z,98467.75
2018-04-06T03:59:07.079Z,98471.05
2018-04-06T04:00:12.387Z,98469.02
2018-04-06T04:01:17.146Z,98471.05
2018-04-06T04:02:22.816Z,98469.83
2018-04-06T04:03:27.537Z,98461.19
2018-04-06T04:04:32.368Z,98462.83
2018-04-06T04:05:37.576Z,98462.05
2018-04-06T04:06:42.892Z,98462.07
2018-04-06T04:07:47.899Z,98458.80
2018-04-06T04:08:53.476Z,98466.19
2018-04-06T04:09:58.391Z,98458.79
2018-04-06T04:11:03.133Z,98455.06
2018-04-06T04:12:07.925Z,98456.31
2018-04-06T04:13:13.253Z,98457.08
2018-04-06T04:14:18.534Z,98455.86
2018-04-06T04:15:24.353Z,98454.24
2018-04-06T04:16:29.227Z,98454.66
2018-04-06T04:17:34.339Z,98454.63
2018-04-06T04:18:39.943Z,98454.22
2018-04-06T04:19:44.713Z,98456.33
2018-04-06T04:20:49.653Z,98454.69
2018-04-06T04:21:54.391Z,98453.39
2018-04-06T04:22:59.297Z,98447.66
2018-04-06T04:24:03.958Z,98449.75
2018-04-06T04:25:14.215Z,98452.64
2018-04-06T04:26:19.054Z,98453.46
2018-04-06T04:27:23.990Z,98449.33
2018-04-06T04:28:28.922Z,98444.78
2018-04-06T04:29:33.750Z,98443.55
2018-04-06T04:30:38.680Z,98449.34
2018-04-06T04:31:43.992Z,98450.18
2018-04-06T04:32:48.848Z,98449.75
2018-04-06T04:33:53.672Z,98455.90
2018-04-06T04:34:58.573Z,98451.00
2018-04-06T04:36:03.300Z,98453.07
2018-04-06T04:37:08.130Z,98450.98
2018-04-06T04:38:12.880Z,98448.11
2018-04-06T04:39:17.764Z,98451.38
2018-04-06T04:40:22.695Z,98445.19
2018-04-06T04:41:27.469Z,98445.20
2018-04-06T04:42:32.181Z,98444.34
2018-04-06T04:43:37.151Z,98445.97
2018-04-06T04:44:41.894Z,98449.70
2018-04-06T04:45:46.724Z,98440.22
2018-04-06T04:46:51.551Z,98437.38
2018-04-06T04:47:56.504Z,98436.58
2018-04-06T04:49:01.481Z,98442.76
2018-04-06T04:50:06.727Z,98445.66
2018-04-06T04:51:11.519Z,98445.22
2018-04-06T04:52:16.300Z,98447.30
2018-04-06T04:53:21.149Z,98444.83
2018-04-06T04:54:26.080Z,98447.27
2018-04-06T04:55:30.656Z,98442.71
2018-04-06T04:56:35.917Z,98441.52
2018-04-06T04:57:40.590Z,98441.53
2018-04-06T04:58:45.556Z,98443.58
2018-04-06T04:59:50.789Z,98449.34
2018-04-06T05:00:55.822Z,98446.44
2018-04-06T05:02:00.772Z,98445.63
2018-04-06T05:03:06.381Z,98445.64
2018-04-06T05:04:12.174Z,98444.39
2018-04-06T05:05:17.199Z,98446.84
2018-04-06T05:06:22.349Z,98446.03
2018-04-06T05:07:27.257Z,98454.67
2018-04-06T05:08:33.362Z,98452.61
2018-04-06T05:09:39.819Z,98450.09
2018-04-06T05:10:44.723Z,98449.69
2018-04-06T05:11:49.926Z,98448.45
2018-04-06T05:12:54.782Z,98447.20
2018-04-06T05:14:00.321Z,98450.50
2018-04-06T05:15:06.533Z,98460.77
2018-04-06T05:16:12.872Z,98459.53
2018-04-06T05:17:18.908Z,98457.05
2018-04-06T05:18:23.965Z,98458.28
2018-04-06T05:19:29.212Z,98452.88
2018-04-06T05:20:34.316Z,98454.52
2018-04-06T05:21:39.509Z,98450.87
2018-04-06T05:22:45.085Z,98442.99
2018-04-06T05:23:50.142Z,98451.64
2018-04-06T05:24:55.770Z,98455.32
2018-04-06T05:26:00.902Z,98458.58
2018-04-06T05:27:05.991Z,98461.09
2018-04-06T05:28:11.152Z,98454.44
2018-04-06T05:29:16.851Z,98458.91
2018-04-06T05:30:22.032Z,98453.90
2018-04-06T05:31:28.192Z,98458.38
2018-04-06T05:32:33.389Z,98471.09
2018-04-06T05:33:38.822Z,98469.09
2018-04-06T05:34:44.238Z,98470.73
2018-04-06T05:35:50.745Z,98474.86
2018-04-06T05:36:56.357Z,98474.86
2018-04-06T05:38:01.767Z,98480.95
2018-04-06T05:39:07.265Z,98477.59
2018-04-06T05:40:13.719Z,98489.11
2018-04-06T05:41:19.186Z,98490.76
2018-04-06T05:42:24.730Z,98484.23
2018-04-06T05:43:30.224Z,98489.94
2018-04-06T05:44:35.842Z,98487.72
2018-04-06T05:45:42.902Z,98493.08
2018-04-06T05:46:48.610Z,98498.83
2018-04-06T05:47:53.870Z,98489.29
2018-04-06T05:48:59.426Z,98483.52
2018-04-06T05:50:05.066Z,98486.45
2018-04-06T05:51:10.387Z,98486.45
2018-04-06T05:52:15.652Z,98487.27
2018-04-06T05:53:20.765Z,98492.71
2018-04-06T05:54:26.139Z,98489.34
2018-04-06T05:55:32.011Z,98489.76
2018-04-06T05:56:37.465Z,98488.03
2018-04-06T05:57:42.814Z,98492.56
2018-04-06T05:58:48.318Z,98496.13
2018-04-06T05:59:54.326Z,98498.53
2018-04-06T06:01:00.297Z,98500.98
2018-04-06T06:02:07.092Z,98498.13
2018-04-06T06:03:12.682Z,98500.08
2018-04-06T06:04:18.910Z,98506.06
2018-04-06T06:05:24.437Z,98502.73
2018-04-06T06:06:30.487Z,98507.70
2018-04-06T06:07:36.265Z,98507.80
2018-04-06T06:08:42.288Z,98508.58
2018-04-06T06:09:47.803Z,98506.47
2018-04-06T06:10:53.525Z,98500.00
2018-04-06T06:11:59.355Z,98495.74
2018-04-06T06:13:04.810Z,98490.39
2018-04-06T06:14:10.379Z,98494.45
2018-04-06T06:15:16.423Z,98492.72
2018-04-06T06:16:22.008Z,98489.97
2018-04-06T06:17:27.683Z,98493.02
2018-04-06T06:18:32.905Z,98506.79
2018-04-06T06:19:38.547Z,98507.14
2018-04-06T06:20:44.192Z,98505.22
2018-04-06T06:21:50.183Z,98505.03
2018-04-06T06:22:55.921Z,98509.20
2018-04-06T06:24:01.673Z,98511.61
2018-04-06T06:25:07.363Z,98515.87
2018-04-06T06:26:13.022Z,98515.34
2018-04-06T06:27:18.830Z,98513.91
2018-04-06T06:28:24.845Z,98520.88
2018-04-06T06:29:30.714Z,98524.48
2018-04-06T06:30:36.563Z,98528.15
2018-04-06T06:31:42.167Z,98528.71
2018-04-06T06:32:48.044Z,98523.00
2018-04-06T06:33:54.050Z,98522.37
2018-04-06T06:35:01.186Z,98515.80
2018-04-06T06:36:07.692Z,98515.16
2018-04-06T06:37:14.524Z,98515.36
2018-04-06T06:38:20.776Z,98515.66
2018-04-06T06:39:27.828Z,98514.42
2018-04-06T06:40:33.793Z,98505.88
2018-04-06T06:41:39.455Z,98514.17
2018-04-06T06:42:46.660Z,98513.52
2018-04-06T06:43:52.370Z,98508.06
2018-04-06T06:44:58.072Z,98509.76
2018-04-06T06:46:03.623Z,98508.81
2018-04-06T06:47:09.636Z,98506.70
2018-04-06T06:48:15.093Z,98506.41
2018-04-06T06:49:23.549Z,98509.88
2018-04-06T06:50:29.406Z,98507.74
2018-04-06T06:51:35.417Z,98501.13
2018-04-06T06:52:41.005Z,98503.51
2018-04-06T06:53:47.312Z,98502.98
2018-04-06T06:54:54.101Z,98505.13
2018-04-06T06:56:01.532Z,98508.05
2018-04-06T06:57:08.119Z,98505.94
2018-04-06T06:58:15.994Z,98498.59
2018-04-06T06:59:22.091Z,98499.84
2018-04-06T07:00:27.961Z,98496.34
2018-04-06T07:01:33.819Z,98500.52
2018-04-06T07:02:39.702Z,98509.80
2018-04-06T07:03:45.489Z,98504.34
2018-04-06T07:04:51.054Z,98503.94
2018-04-06T07:05:57.198Z,98490.54
2018-04-06T07:07:03.083Z,98491.72
2018-04-06T07:08:08.752Z,98498.77
2018-04-06T07:09:14.302Z,98503.77
2018-04-06T07:10:19.830Z,98504.33
2018-04-06T07:11:25.547Z,98498.63
2018-04-06T07:12:31.553Z,98491.27
2018-04-06T07:13:37.232Z,98497.91
2018-04-06T07:14:43.083Z,98487.19
2018-04-06T07:15:48.645Z,98486.91
2018-04-06T07:16:54.203Z,98489.17
2018-04-06T07:17:59.560Z,98495.70
2018-04-06T07:19:05.650Z,98488.73
2018-04-06T07:20:11.246Z,98495.16
2018-04-06T07:21:16.861Z,98492.98
2018-04-06T07:22:22.298Z,98489.29
2018-04-06T07:23:27.843Z,98484.19
2018-04-06T07:24:33.554Z,98488.27
2018-04-06T07:25:39.648Z,98486.05
2018-04-06T07:26:44.721Z,98478.09
2018-04-06T07:27:50.509Z,98484.61
2018-04-06T07:28:56.024Z,98481.95
2018-04-06T07:30:01.553Z,98472.35
2018-04-06T07:31:07.094Z,98470.98
2018-04-06T07:32:12.856Z,98465.82
2018-04-06T07:33:19.396Z,98470.91
2018-04-06T07:34:24.978Z,98464.81
2018-04-06T07:35:30.494Z,98457.50
2018-04-06T07:36:35.758Z,98456.48
2018-04-06T07:37:41.164Z,98463.86
2018-04-06T07:38:46.699Z,98456.94
2018-04-06T07:39:52.222Z,98449.59
2018-04-06T07:40:57.810Z,98449.69
2018-04-06T07:42:03.363Z,98450.23
2018-04-06T07:43:09.746Z,98454.51
2018-04-06T07:44:16.008Z,98450.31
2018-04-06T07:45:26.740Z,98458.39
2018-04-06T07:46:34.186Z,98456.80
2018-04-06T07:47:40.647Z,98468.59
2018-04-06T07:48:46.098Z,98447.83
2018-04-06T07:49:52.122Z,98453.05
2018-04-06T07:50:57.555Z,98446.90
2018-04-06T07:52:03.049Z,98447.26
2018-04-06T07:53:08.707Z,98455.53
2018-04-06T07:54:14.725Z,98447.20
2018-04-06T07:55:21.213Z,98445.30
2018-04-06T07:56:26.857Z,98454.37
2018-04-06T07:57:32.718Z,98447.67
2018-04-06T07:58:38.730Z,98446.48
2018-04-06T07:59:44.725Z,98453.09
2018-04-06T08:00:52.314Z,98444.59
2018-04-06T08:02:01.316Z,98446.98
2018-04-06T08:03:07.228Z,98450.05
2018-04-06T08:04:13.039Z,98456.72
2018-04-06T08:05:18.706Z,98444.26
2018-04-06T08:06:24.579Z,98440.53
2018-04-06T08:07:30.358Z,98431.92
2018-04-06T08:08:36.618Z,98434.30
2018-04-06T08:09:42.418Z,98435.89
2018-04-06T08:10:47.995Z,98429.03
2018-04-06T08:11:53.791Z,98436.00
2018-04-06T08:12:59.567Z,98418.27
2018-04-06T08:14:05.299Z,98424.56
2018-04-06T08:15:11.381Z,98426.70
2018-04-06T08:16:17.227Z,98419.88
2018-04-06T08:17:29.562Z,98420.38
2018-04-06T08:18:43.086Z,98423.23
2018-04-06T08:19:55.279Z,98421.48
2018-04-06T08:21:06.776Z,98414.06
2018-04-06T08:22:23.266Z,98414.77
2018-04-06T08:23:43.311Z,98410.98
2018-04-06T08:25:00.903Z,98402.45
2018-04-06T08:27:29.478Z,98410.61
2018-04-06T08:30:02.673Z,98397.18
2018-04-06T08:31:17.060Z,98396.11
2018-04-06T08:32:40.410Z,98402.52
2018-04-06T08:33:53.020Z,98404.43
2018-04-06T08:35:13.613Z,98410.42
2018-04-06T08:36:34.880Z,98405.77
2018-04-06T08:39:24.357Z,98407.03
2018-04-06T08:40:47.260Z,98403.45
2018-04-06T08:43:23.172Z,98404.27
2018-04-06T08:46:01.697Z,98400.77
2018-04-06T08:47:12.360Z,98402.22
2018-04-06T08:48:24.134Z,98396.38
2018-04-06T08:49:36.817Z,98396.36
2018-04-06T08:50:51.051Z,98376.81
2018-04-06T08:52:05.661Z,98387.20
2018-04-06T08:53:32.909Z,98381.66
2018-04-06T08:54:39.565Z,98395.44
2018-04-06T08:55:56.954Z,98396.00
2018-04-06T08:57:14.206Z,98380.20
2018-04-06T08:58:36.685Z,98363.53
2018-04-06T09:02:40.814Z,98375.79
2018-04-06T09:03:54.675Z,98381.00
2018-04-06T09:05:14.124Z,98381.92
2018-04-06T09:06:27.985Z,98382.33
2018-04-06T09:07:36.801Z,98384.55
2018-04-06T09:08:49.051Z,98366.48
2018-04-06T09:10:00.879Z,98397.67
2018-04-06T09:12:38.199Z,98365.05
2018-04-06T09:13:49.875Z,98373.12
2018-04-06T09:15:16.079Z,98370.84
2018-04-06T09:16:30.733Z,98403.47
2018-04-06T09:17:46.581Z,98379.77
2018-04-06T09:18:55.146Z,98397.14
2018-04-06T09:20:00.823Z,98382.33
2018-04-06T09:21:06.558Z,98402.69
2018-04-06T09:22:12.006Z,98390.31
2018-04-06T09:23:17.590Z,98398.32
2018-04-06T09:24:23.252Z,98404.16
2018-04-06T09:25:28.811Z,98396.72
2018-04-06T09:26:34.335Z,98401.33
2018-04-06T09:27:39.722Z,98405.98
2018-04-06T09:28:45.110Z,98400.91
2018-04-06T09:29:50.553Z,98403.00
2018-04-06T09:30:55.992Z,98404.55
2018-04-06T09:32:01.264Z,98390.44
2018-04-06T09:33:07.128Z,98406.03
2018-04-06T09:34:12.579Z,98390.84
2018-04-06T09:35:18.021Z,98398.39
2018-04-06T09:36:23.572Z,98402.05
2018-04-06T09:37:29.088Z,98406.19
2018-04-06T09:38:34.816Z,98403.59
2018-04-06T09:39:40.184Z,98396.86
2018-04-06T09:40:45.474Z,98401.72
2018-04-06T09:41:50.792Z,98389.98
2018-04-06T09:42:56.320Z,98394.28
2018-04-06T09:44:01.825Z,98390.11
2018-04-06T09:45:07.600Z,98390.56
2018-04-06T09:46:13.077Z,98390.58
2018-04-06T09:47:18.929Z,98406.05
2018-04-06T09:48:24.278Z,98392.70
2018-04-06T09:49:29.472Z,98383.86
2018-04-06T09:50:35.154Z,98388.88
2018-04-06T09:51:42.053Z,98389.27
2018-04-06T09:52:47.622Z,98381.97
2018-04-06T09:53:53.166Z,98392.73
2018-04-06T09:54:58.625Z,98377.37
2018-04-06T09:56:04.116Z,98366.33
2018-04-06T09:57:09.970Z,98379.21
2018-04-06T09:58:15.485Z,98364.97
2018-04-06T09:59:20.954Z,98370.55
2018-04-06T10:00:30.355Z,98389.91
2018-04-06T10:01:36.839Z,98369.16
2018-04-06T10:02:44.302Z,98369.05
2018-04-06T10:03:50.305Z,98346.32
2018-04-06T10:04:55.604Z,98362.91
2018-04-06T10:06:01.672Z,98335.77
2018-04-06T10:07:07.736Z,98356.99
2018-04-06T10:08:13.637Z,98360.95
2018-04-06T10:09:18.954Z,98363.23
2018-04-06T10:10:24.390Z,98353.03
2018-04-06T10:11:29.463Z,98351.98
2018-04-06T10:12:35.546Z,98383.67
2018-04-06T10:13:41.145Z,98350.69
2018-04-06T10:14:47.517Z,98356.52
2018-04-06T10:15:52.782Z,98335.05
2018-04-06T10:16:58.257Z,98335.62
2018-04-06T10:18:03.582Z,98337.86
2018-04-06T10:19:09.184Z,98335.06
2018-04-06T10:20:14.603Z,98333.94
2018-04-06T10:21:20.357Z,98348.25
2018-04-06T10:22:25.922Z,98335.98
2018-04-06T10:23:31.429Z,98332.16
2018-04-06T10:24:36.958Z,98343.16
2018-04-06T10:25:42.530Z,98326.97
2018-04-06T10:26:48.120Z,98329.92
2018-04-06T10:27:53.891Z,98324.30
2018-04-06T10:28:59.548Z,98330.78
2018-04-06T10:30:05.203Z,98327.84
2018-04-06T10:31:10.830Z,98330.55
2018-04-06T10:32:16.253Z,98326.50
2018-04-06T10:33:21.874Z,98324.20
2018-04-06T10:34:27.747Z,98318.83
2018-04-06T10:35:33.151Z,98323.72
2018-04-06T10:36:39.438Z,98319.27
2018-04-06T10:37:44.957Z,98322.79
2018-04-06T10:38:50.508Z,98323.33
2018-04-06T10:39:56.038Z,98312.47
2018-04-06T10:41:02.914Z,98317.05
2018-04-06T10:42:08.205Z,98319.59
2018-04-06T10:43:13.748Z,98316.29
2018-04-06T10:44:19.000Z,98316.97
2018-04-06T10:45:24.218Z,98317.26
2018-04-06T10:46:29.621Z,98328.52
2018-04-06T10:47:35.537Z,98305.34
2018-04-06T10:48:40.758Z,98281.89
2018-04-06T10:49:46.110Z,98297.81
2018-04-06T10:54:55.405Z,98297.03
2018-04-06T10:56:01.994Z,98302.56
2018-04-06T10:57:07.646Z,98274.31
2018-04-06T10:58:13.678Z,98285.48
2018-04-06T10:59:19.141Z,98271.31
2018-04-06T11:00:25.664Z,98283.24
2018-04-06T11:01:31.370Z,98277.28
2018-04-06T11:02:38.688Z,98287.64
2018-04-06T11:03:43.861Z,98290.56
2018-04-06T11:04:49.378Z,98282.94
2018-04-06T11:05:54.716Z,98280.54
2018-04-06T11:07:00.313Z,98289.14
2018-04-06T11:08:06.947Z,98275.45
2018-04-06T11:09:13.283Z,98275.27
2018-04-06T11:10:18.879Z,98274.58
2018-04-06T11:11:24.238Z,98270.95
2018-04-06T11:12:29.678Z,98274.66
2018-04-06T11:13:34.941Z,98258.14
2018-04-06T11:14:40.927Z,98286.27
2018-04-06T11:15:46.307Z,98269.03
2018-04-06T11:16:51.733Z,98255.69
2018-04-06T11:17:56.980Z,98255.61
2018-04-06T11:19:02.632Z,98256.09
2018-04-06T11:20:08.148Z,98248.82
2018-04-06T11:21:14.136Z,98255.52
2018-04-06T11:22:19.658Z,98280.23
2018-04-06T11:23:25.484Z,98276.20
2018-04-06T11:24:31.341Z,98275.87
2018-04-06T11:25:37.252Z,98261.28
2018-04-06T11:26:43.692Z,98262.84
2018-04-06T11:27:49.505Z,98273.02
2018-04-06T11:28:55.304Z,98256.77
2018-04-06T11:30:00.884Z,98251.60
2018-04-06T11:31:06.733Z,98255.73
2018-04-06T11:32:12.876Z,98246.55
2018-04-06T11:33:18.500Z,98279.61
2018-04-06T11:34:23.999Z,98250.63
2018-04-06T11:35:29.497Z,98251.06
2018-04-06T11:36:35.002Z,98253.09
2018-04-06T11:37:40.206Z,98252.03
2018-04-06T11:38:46.701Z,98242.47
2018-04-06T11:39:52.167Z,98247.09
2018-04-06T11:40:57.632Z,98238.48
2018-04-06T11:42:03.914Z,98245.18
2018-04-06T11:43:09.338Z,98232.36
2018-04-06T11:44:14.701Z,98245.31
2018-04-06T11:45:20.558Z,98253.53
2018-04-06T11:46:26.123Z,98230.41
2018-04-06T11:47:31.693Z,98230.28
2018-04-06T11:48:37.090Z,98243.02
2018-04-06T11:49:42.401Z,98253.55
2018-04-06T11:50:47.794Z,98231.15
2018-04-06T11:51:53.573Z,98252.55
2018-04-06T11:52:58.932Z,98249.08
2018-04-06T11:54:04.793Z,98262.58
2018-04-06T11:55:10.365Z,98240.16
2018-04-06T11:56:15.824Z,98236.20
2018-04-06T11:57:21.769Z,98228.58
2018-04-06T11:58:27.072Z,98234.87
2018-04-06T11:59:33.779Z,98229.89
2018-04-06T12:00:39.525Z,98232.61
2018-04-06T12:01:45.107Z,98242.67
2018-04-06T12:02:50.669Z,98240.13
2018-04-06T12:03:56.585Z,98224.34
2018-04-06T12:05:01.985Z,98229.31
2018-04-06T12:06:07.809Z,98232.70
2018-04-06T12:07:13.486Z,98226.59
2018-04-06T12:08:19.087Z,98241.76
2018-04-06T12:09:24.556Z,98232.06
2018-04-06T12:10:30.279Z,98228.16
2018-04-06T12:11:35.754Z,98226.52
2018-04-06T12:12:41.077Z,98243.39
2018-04-06T12:13:46.512Z,98228.30
2018-04-06T12:14:52.075Z,98232.70
2018-04-06T12:15:57.510Z,98224.42
2018-04-06T12:17:03.344Z,98226.81
2018-04-06T12:18:09.644Z,98244.45
2018-04-06T12:19:15.730Z,98242.56
2018-04-06T12:20:22.109Z,98238.45
2018-04-06T12:21:28.144Z,98225.31
2018-04-06T12:22:34.779Z,98222.95
2018-04-06T12:23:40.370Z,98235.45
2018-04-06T12:24:45.846Z,98237.22
2018-04-06T12:25:51.176Z,98234.59
2018-04-06T12:26:56.560Z,98231.23
2018-04-06T12:28:02.000Z,98220.98
2018-04-06T12:29:08.188Z,98214.22
2018-04-06T12:30:13.799Z,98217.20
2018-04-06T12:31:20.184Z,98213.79
2018-04-06T12:32:26.131Z,98215.67
2018-04-06T12:33:31.698Z,98216.82
2018-04-06T12:34:37.599Z,98203.93
2018-04-06T12:35:43.262Z,98226.81
2018-04-06T12:36:48.589Z,98216.46
2018-04-06T12:37:54.290Z,98199.92
2018-04-06T12:38:59.764Z,98204.69
2018-04-06T12:40:05.305Z,98211.41
2018-04-06T12:41:11.314Z,98205.41
2018-04-06T12:42:16.949Z,98187.17
2018-04-06T12:43:22.524Z,98209.48
2018-04-06T12:44:28.216Z,98197.22
2018-04-06T12:45:33.593Z,98193.71
2018-04-06T12:46:39.098Z,98180.03
2018-04-06T12:47:45.014Z,98193.88
2018-04-06T12:48:50.911Z,98193.89
2018-04-06T12:49:56.391Z,98191.16
2018-04-06T12:51:01.871Z,98185.09
2018-04-06T12:52:07.388Z,98178.33
2018-04-06T12:53:12.723Z,98179.84
2018-04-06T12:54:18.522Z,98178.53
2018-04-06T12:55:24.030Z,98180.13
2018-04-06T12:56:29.601Z,98168.68
2018-04-06T12:57:35.207Z,98178.69
2018-04-06T12:58:40.724Z,98165.09
2018-04-06T12:59:46.360Z,98181.04
2018-04-06T13:00:52.495Z,98180.81
2018-04-06T13:01:58.134Z,98179.13
2018-04-06T13:03:04.400Z,98170.50
2018-04-06T13:04:10.946Z,98168.34
2018-04-06T13:05:16.442Z,98169.86
2018-04-06T13:06:23.599Z,98161.75
2018-04-06T13:07:29.038Z,98160.28
2018-04-06T13:08:35.673Z,98167.69
2018-04-06T13:09:41.365Z,98141.36
2018-04-06T13:10:46.882Z,98150.95
2018-04-06T13:11:52.337Z,98152.16